Overview Statistics Trail Chart Weather Telemetry Raw packets
 

This is the latest recevied weather packets stored in our database for station/object KF7SOJ. If no packets are shown the sender has not sent any weather packets the latest 10 day(s).

<< 70 71 72 73 74 75 76 >>
Time Temp. Humidity Pressure Rain* Wind** Luminosity Snow
1788114858 15.56° C 78% 930.8 hPa 0 mm - 300 W/m² -
1788114554 15° C 76% 930.6 hPa 0 mm - 281 W/m² -
1788114249 15° C 75% 930.7 hPa 0 mm - 349 W/m² -
1788113946 15° C 73% 930.7 hPa 0 mm - 388 W/m² -
1788113641 15° C 77% 930.6 hPa 0 mm - 410 W/m² -
1788113341 15° C 74% 930.4 hPa 0 mm - 472 W/m² -
1788113040 14.44° C 81% 930.3 hPa 0.51 mm - 402 W/m² -
1788112740 13.89° C 81% 930.4 hPa 0.51 mm - 438 W/m² -
1788112439 13.89° C 82% 930.4 hPa 0 mm - 662 W/m² -
1788112134 12.78° C 80% 929.4 hPa 1.27 mm - 329 W/m² -
1788111830 12.22° C 85% 930.3 hPa 4.83 mm - 70 W/m² -
1788111525 12.22° C 89% 931.7 hPa 6.1 mm - 43 W/m² -
1788111220 12.22° C 89% 932.2 hPa 6.1 mm - 36 W/m² -
1788110917 12.22° C 88% 932.4 hPa 5.33 mm - 32 W/m² -
1788110613 12.78° C 83% 932.2 hPa 4.32 mm - 32 W/m² -
1788110308 12.78° C 84% 932 hPa 2.29 mm - 36 W/m² -
1788110004 12.78° C 85% 932.1 hPa 1.78 mm - 45 W/m² -
1788109699 12.78° C 85% 931.9 hPa 5.33 mm - 56 W/m² -
1788109398 12.78° C 85% 932.1 hPa 5.33 mm - 80 W/m² -
1788109097 12.78° C 84% 932.1 hPa 1.27 mm - 46 W/m² -
1788108793 12.78° C 84% 931.9 hPa 0.51 mm - 47 W/m² -
1788108489 12.78° C 86% 932.1 hPa 0 mm - 64 W/m² -
1788108185 12.22° C 87% 931.8 hPa 1.78 mm - 87 W/m² -
1788107881 12.22° C 88% 931.8 hPa 8.89 mm - 94 W/m² -
1788107576 12.78° C 85% 931.6 hPa 6.1 mm - 136 W/m² -

* Rain latest hour (hover to see other rain measurements)
** Current wind speed in m/s (hover to see current wind gust speed)